Time;durP1;ratioP1;P1;durP2;ratioP2;P2;SDS_P1;SDS_P2;PMS_P1;PMS_P2;Temp;Humidity;BMP_temperature;BMP_pressure;BME280_temperature;BME280_humidity;BME280_pressure;Samples;Min_cycle;Max_cycle;Signal;HPM_P1;HPM_P2
2022/03/02 00:00:10;;;;;;;15.48;6.57;;;8.10;1.00;;;;;;5034520;28;20045;-69
2022/03/02 00:02:37;;;;;;;19.77;6.20;;;8.00;1.00;;;;;;5034536;28;20046;-69
2022/03/02 00:05:04;;;;;;;24.35;6.03;;;7.90;1.00;;;;;;5034586;28;20040;-69
2022/03/02 00:07:30;;;;;;;22.17;7.20;;;8.00;1.00;;;;;;5034707;28;20045;-69
2022/03/02 00:09:56;;;;;;;19.90;6.88;;;7.90;1.00;;;;;;5037434;28;20091;-69
2022/03/02 00:12:22;;;;;;;31.35;13.25;;;7.80;1.00;;;;;;5038756;28;20034;-69
2022/03/02 00:14:48;;;;;;;27.70;8.18;;;7.90;1.00;;;;;;5038754;28;20043;-69
2022/03/02 00:17:14;;;;;;;23.30;8.00;;;7.90;1.00;;;;;;5038398;28;20128;-69
2022/03/02 00:19:40;;;;;;;22.48;7.13;;;7.90;1.00;;;;;;5038895;28;20048;-69
2022/03/02 00:22:06;;;;;;;18.35;6.40;;;7.90;1.00;;;;;;5038270;28;20374;-69
2022/03/02 00:24:32;;;;;;;27.45;7.15;;;7.90;1.00;;;;;;5038269;28;20044;-69
2022/03/02 00:26:58;;;;;;;18.05;7.10;;;7.80;1.00;;;;;;5038372;28;20067;-69
2022/03/02 00:29:25;;;;;;;21.23;6.30;;;7.80;1.00;;;;;;5038788;28;20103;-69
2022/03/02 00:31:52;;;;;;;17.42;7.65;;;7.80;1.00;;;;;;5038630;28;20048;-69
2022/03/02 00:34:18;;;;;;;22.65;9.27;;;7.70;1.00;;;;;;5038767;28;20029;-69
2022/03/02 00:36:44;;;;;;;23.38;8.52;;;7.60;1.00;;;;;;5038252;28;20547;-69
2022/03/02 00:39:10;;;;;;;29.48;8.43;;;7.50;1.00;;;;;;5038172;28;20134;-69
2022/03/02 00:41:36;;;;;;;26.48;8.20;;;7.40;1.00;;;;;;5020919;28;20495;-69
2022/03/02 00:44:03;;;;;;;18.80;6.70;;;7.30;1.00;;;;;;5038156;28;20033;-69
2022/03/02 00:46:29;;;;;;;19.38;7.45;;;7.30;1.00;;;;;;5037850;28;20042;-69
2022/03/02 00:48:57;;;;;;;23.55;7.30;;;7.30;1.00;;;;;;5038372;28;20048;-69
2022/03/02 00:51:23;;;;;;;23.77;6.82;;;7.30;1.00;;;;;;5038063;28;20038;-69
2022/03/02 00:53:50;;;;;;;28.20;10.23;;;7.30;1.00;;;;;;5038155;28;20033;-69
2022/03/02 00:56:16;;;;;;;20.25;6.97;;;7.30;1.00;;;;;;5038262;28;20037;-69
2022/03/02 00:58:41;;;;;;;22.92;7.25;;;7.30;1.00;;;;;;5037557;28;20045;-69
2022/03/02 01:01:07;;;;;;;25.02;7.05;;;7.20;1.00;;;;;;5037585;28;20081;-69
2022/03/02 01:03:33;;;;;;;22.30;7.30;;;7.10;1.00;;;;;;5037214;28;20061;-69
2022/03/02 01:06:00;;;;;;;26.45;10.02;;;7.00;1.00;;;;;;5037521;28;20080;-69
2022/03/02 01:08:26;;;;;;;18.10;6.80;;;7.00;1.00;;;;;;5037211;28;20103;-69
2022/03/02 01:10:52;;;;;;;26.75;7.60;;;7.00;1.00;;;;;;5037479;28;20480;-69
2022/03/02 01:13:18;;;;;;;20.48;6.97;;;7.00;1.00;;;;;;5037381;28;20057;-69
2022/03/02 01:15:44;;;;;;;23.55;6.90;;;7.00;1.00;;;;;;5019542;28;20460;-69
2022/03/02 01:18:10;;;;;;;22.98;7.38;;;7.00;1.00;;;;;;5037019;28;20080;-69
2022/03/02 01:20:36;;;;;;;23.83;6.78;;;7.20;1.00;;;;;;5036417;28;20077;-69
2022/03/02 01:23:02;;;;;;;24.50;7.32;;;7.20;1.00;;;;;;5036895;28;20061;-69
2022/03/02 01:25:27;;;;;;;21.00;6.38;;;7.30;1.00;;;;;;5037390;28;20033;-69
2022/03/02 01:27:53;;;;;;;20.90;6.82;;;7.30;1.00;;;;;;5036770;28;20048;-69
2022/03/02 01:30:20;;;;;;;21.42;7.00;;;7.40;1.00;;;;;;5036580;28;20042;-69
2022/03/02 01:32:46;;;;;;;24.08;7.22;;;7.40;1.00;;;;;;5037044;28;20033;-69
2022/03/02 01:35:12;;;;;;;23.67;7.70;;;7.40;1.00;;;;;;5036950;28;20532;-69
2022/03/02 01:37:38;;;;;;;16.13;6.93;;;7.40;1.00;;;;;;5036506;28;20037;-69
2022/03/02 01:40:09;;;;;;;22.40;6.88;;;7.50;1.00;;;;;;5037131;28;20061;-69
2022/03/02 01:42:39;;;;;;;20.45;6.72;;;7.50;1.00;;;;;;5036441;28;20041;-69
2022/03/02 01:45:06;;;;;;;19.27;6.70;;;7.50;1.00;;;;;;5036826;28;20083;-69
2022/03/02 01:47:33;;;;;;;22.33;6.85;;;7.50;1.00;;;;;;5019069;28;20047;-69
2022/03/02 01:49:59;;;;;;;19.90;6.47;;;7.60;1.00;;;;;;5036454;28;20406;-69
2022/03/02 01:52:24;;;;;;;21.10;6.65;;;7.60;1.00;;;;;;5036629;28;20029;-69
2022/03/02 01:54:50;;;;;;;17.75;6.53;;;7.60;1.00;;;;;;5036867;28;20048;-69
2022/03/02 01:57:16;;;;;;;19.10;7.32;;;7.60;1.00;;;;;;5036417;28;20041;-69
2022/03/02 01:59:42;;;;;;;22.65;6.75;;;7.60;1.00;;;;;;5036437;28;20045;-69
2022/03/02 02:02:08;;;;;;;20.75;6.25;;;7.60;1.00;;;;;;5036129;28;20054;-69
2022/03/02 02:04:34;;;;;;;19.02;6.35;;;7.60;1.00;;;;;;5036096;28;20531;-69
2022/03/02 02:07:00;;;;;;;16.65;6.60;;;7.50;1.00;;;;;;5036367;28;20048;-69
2022/03/02 02:09:26;;;;;;;28.55;6.35;;;7.50;1.00;;;;;;5036261;28;20033;-69
2022/03/02 02:11:51;;;;;;;18.83;6.65;;;7.60;1.00;;;;;;5035940;28;20045;-69
2022/03/02 02:14:17;;;;;;;16.10;6.57;;;7.50;1.00;;;;;;5036023;28;20102;-69
2022/03/02 02:16:44;;;;;;;24.60;7.78;;;7.50;1.00;;;;;;5035991;28;20515;-69
2022/03/02 02:19:10;;;;;;;24.65;6.75;;;7.60;1.00;;;;;;5035740;28;20057;-69
2022/03/02 02:21:36;;;;;;;16.00;6.57;;;7.50;1.00;;;;;;5036028;28;20041;-69
2022/03/02 02:24:03;;;;;;;21.48;6.90;;;7.50;1.00;;;;;;5018132;28;20045;-69
2022/03/02 02:26:28;;;;;;;21.65;6.95;;;7.40;1.00;;;;;;5035839;28;20033;-69
2022/03/02 02:28:55;;;;;;;23.92;6.13;;;7.40;1.00;;;;;;5035636;28;20056;-69
2022/03/02 02:31:21;;;;;;;25.20;6.90;;;7.30;1.00;;;;;;5035163;28;20083;-69
2022/03/02 02:33:47;;;;;;;26.55;6.72;;;7.00;1.00;;;;;;5035657;28;20033;-69
2022/03/02 02:36:14;;;;;;;16.60;7.15;;;7.40;1.00;;;;;;5035994;28;20037;-69
2022/03/02 02:38:41;;;;;;;22.95;6.07;;;7.40;1.00;;;;;;5035365;28;20037;-69
2022/03/02 02:41:07;;;;;;;20.73;6.10;;;7.50;1.00;;;;;;5036046;28;20200;-69
2022/03/02 02:43:33;;;;;;;18.23;5.80;;;7.50;1.00;;;;;;5035533;28;20119;-69
2022/03/02 02:45:59;;;;;;;20.67;5.63;;;7.40;1.00;;;;;;5035444;28;20082;-69
2022/03/02 02:48:25;;;;;;;19.88;5.97;;;6.70;1.00;;;;;;5035568;28;20419;-69
2022/03/02 02:50:51;;;;;;;14.18;5.38;;;7.50;1.00;;;;;;5036170;28;20034;-69
2022/03/02 02:53:17;;;;;;;20.60;6.05;;;7.60;1.00;;;;;;5035464;28;20041;-69
2022/03/02 02:55:45;;;;;;;18.33;5.80;;;7.60;1.00;;;;;;5035654;28;20081;-69
2022/03/02 02:58:11;;;;;;;21.10;6.43;;;7.60;1.00;;;;;;5035406;28;20041;-69
2022/03/02 03:00:41;;;;;;;18.67;5.75;;;7.60;1.00;;;;;;5035143;28;20085;-69
2022/03/02 03:03:07;;;;;;;13.90;5.30;;;7.70;1.00;;;;;;5035398;28;20060;-69
2022/03/02 03:05:34;;;;;;;17.55;5.82;;;7.70;1.00;;;;;;5035003;28;20422;-69
2022/03/02 03:08:02;;;;;;;21.05;5.60;;;7.70;1.00;;;;;;5034850;28;20488;-69
2022/03/02 03:10:28;;;;;;;22.17;6.03;;;7.70;1.00;;;;;;5035404;28;20049;-69
2022/03/02 03:12:54;;;;;;;22.85;5.80;;;7.80;1.00;;;;;;5034976;28;20033;-69
2022/03/02 03:15:21;;;;;;;20.27;5.57;;;7.80;1.00;;;;;;5034669;28;20041;-68
2022/03/02 03:17:49;;;;;;;15.98;6.00;;;7.80;1.00;;;;;;5035043;28;20064;-69
2022/03/02 03:20:17;;;;;;;16.38;5.10;;;7.70;1.00;;;;;;5035265;28;20095;-69
2022/03/02 03:22:43;;;;;;;15.57;4.80;;;7.70;1.00;;;;;;5034947;28;20132;-69
2022/03/02 03:25:10;;;;;;;17.15;5.18;;;7.80;1.00;;;;;;5034651;28;20045;-69
2022/03/02 03:27:37;;;;;;;21.63;4.88;;;7.80;1.00;;;;;;5034547;28;20033;-69
2022/03/02 03:30:08;;;;;;;18.13;5.05;;;7.80;1.00;;;;;;5034807;28;20092;-69
2022/03/02 03:32:34;;;;;;;;;;;7.80;1.00;;;;;;5035528;28;20041;-69
2022/03/02 03:35:00;;;;;;;16.73;4.85;;;7.80;1.00;;;;;;5034443;28;19909;-69
2022/03/02 03:37:27;;;;;;;15.35;5.10;;;7.80;1.00;;;;;;5034448;28;20052;-69
2022/03/02 03:39:53;;;;;;;17.35;4.93;;;7.80;1.00;;;;;;5034996;28;20041;-69
2022/03/02 03:42:19;;;;;;;18.65;5.03;;;7.80;1.00;;;;;;5034797;28;20041;-69
2022/03/02 03:44:45;;;;;;;15.20;4.97;;;7.80;1.00;;;;;;5033980;28;20144;-69
2022/03/02 03:47:11;;;;;;;19.75;5.25;;;7.80;1.00;;;;;;5034608;28;20061;-69
2022/03/02 03:49:37;;;;;;;19.30;5.10;;;7.80;1.00;;;;;;5034653;28;20128;-69
2022/03/02 03:52:03;;;;;;;15.45;4.65;;;7.80;1.00;;;;;;5034270;28;20037;-69
2022/03/02 03:54:29;;;;;;;20.13;5.20;;;7.80;1.00;;;;;;5034521;28;20041;-69
2022/03/02 03:56:55;;;;;;;13.98;4.93;;;7.80;1.00;;;;;;5034513;28;20120;-69
2022/03/02 03:59:21;;;;;;;16.25;5.45;;;7.90;1.00;;;;;;5034300;28;20045;-69
2022/03/02 04:01:46;;;;;;;18.85;5.13;;;7.80;1.00;;;;;;5034862;28;20081;-69
2022/03/02 04:04:12;;;;;;;15.32;5.45;;;7.80;1.00;;;;;;5034402;28;20123;-69
2022/03/02 04:06:38;;;;;;;21.20;5.50;;;7.80;1.00;;;;;;5034456;28;20041;-69
2022/03/02 04:09:04;;;;;;;17.55;5.35;;;7.70;1.00;;;;;;5034971;28;20429;-69
2022/03/02 04:11:30;;;;;;;15.27;4.90;;;7.90;1.00;;;;;;5034679;28;20096;-69
2022/03/02 04:13:57;;;;;;;16.02;4.93;;;7.80;1.00;;;;;;5034961;28;20124;-69
2022/03/02 04:16:23;;;;;;;17.38;4.70;;;7.90;1.00;;;;;;5034421;28;20042;-69
2022/03/02 04:18:49;;;;;;;17.95;5.13;;;7.90;1.00;;;;;;5034714;28;20124;-69
2022/03/02 04:21:15;;;;;;;15.07;5.22;;;7.90;1.00;;;;;;5034843;28;20117;-69
2022/03/02 04:23:41;;;;;;;17.42;5.10;;;7.90;1.00;;;;;;5034828;28;20037;-69
2022/03/02 04:26:07;;;;;;;15.35;4.75;;;7.90;1.00;;;;;;5034537;28;20048;-69
2022/03/02 04:28:33;;;;;;;19.25;5.40;;;7.90;1.00;;;;;;5034231;28;20091;-69
2022/03/02 04:30:59;;;;;;;12.93;5.10;;;7.90;1.00;;;;;;5034430;28;20049;-69
2022/03/02 04:33:25;;;;;;;14.13;5.15;;;7.90;1.00;;;;;;5034407;28;20116;-69
2022/03/02 04:35:51;;;;;;;16.83;4.97;;;7.90;1.00;;;;;;5034422;28;20045;-69
2022/03/02 04:38:17;;;;;;;13.55;4.82;;;7.90;1.00;;;;;;5034120;28;20072;-69
2022/03/02 04:40:42;;;;;;;19.30;5.05;;;7.90;1.00;;;;;;5034038;28;20052;-69
2022/03/02 04:43:09;;;;;;;15.40;5.32;;;7.80;1.00;;;;;;5034502;28;20038;-69
2022/03/02 04:45:34;;;;;;;11.93;4.70;;;7.80;1.00;;;;;;5034298;28;20137;-69
2022/03/02 04:48:01;;;;;;;18.70;5.38;;;7.80;1.00;;;;;;5034322;28;20112;-69
2022/03/02 04:50:27;;;;;;;27.70;9.98;;;7.80;1.00;;;;;;5033997;28;20045;-69
2022/03/02 04:52:55;;;;;;;22.45;8.20;;;7.80;1.00;;;;;;5034202;28;20100;-69
2022/03/02 04:55:21;;;;;;;13.63;5.15;;;7.80;1.00;;;;;;5035613;28;20132;-69
2022/03/02 04:57:50;;;;;;;16.60;5.75;;;7.90;1.00;;;;;;5038173;28;20041;-69
2022/03/02 05:00:22;;;;;;;15.27;4.65;;;7.90;1.00;;;;;;5037589;28;20497;-69
2022/03/02 05:02:48;;;;;;;16.42;5.45;;;7.80;1.00;;;;;;5037734;28;20108;-69
2022/03/02 05:05:16;;;;;;;17.17;5.57;;;7.80;1.00;;;;;;5037251;28;20041;-69
2022/03/02 05:07:43;;;;;;;13.68;5.25;;;7.80;1.00;;;;;;5037525;28;20056;-69
2022/03/02 05:10:11;;;;;;;17.10;5.38;;;7.70;1.00;;;;;;5037500;28;20068;-69
2022/03/02 05:12:37;;;;;;;15.77;5.57;;;7.80;1.00;;;;;;5019617;28;20387;-69
2022/03/02 05:15:04;;;;;;;18.42;6.10;;;7.80;1.00;;;;;;5037388;28;20045;-69
2022/03/02 05:17:30;;;;;;;16.63;5.60;;;7.80;1.00;;;;;;5037267;28;20060;-69
2022/03/02 05:19:56;;;;;;;18.27;5.90;;;7.80;1.00;;;;;;5036936;28;20050;-69
2022/03/02 05:22:22;;;;;;;16.58;5.53;;;7.80;1.00;;;;;;5036950;28;20065;-69
2022/03/02 05:24:48;;;;;;;14.38;5.30;;;7.80;1.00;;;;;;5036985;28;20069;-69
2022/03/02 05:27:14;;;;;;;15.02;5.72;;;7.80;1.00;;;;;;5037108;28;20041;-69
2022/03/02 05:29:40;;;;;;;17.95;5.32;;;7.80;1.00;;;;;;5037345;28;20516;-69
2022/03/02 05:32:06;;;;;;;14.35;5.43;;;7.80;1.00;;;;;;5036989;28;20041;-69
2022/03/02 05:34:32;;;;;;;14.50;5.43;;;7.80;9.50;;;;;;5037018;28;20127;-69
2022/03/02 05:36:58;;;;;;;20.17;5.88;;;7.70;11.80;;;;;;5037111;28;20089;-69
2022/03/02 05:39:24;;;;;;;20.65;5.97;;;7.60;14.60;;;;;;5037171;28;20054;-69
2022/03/02 05:41:51;;;;;;;20.05;7.32;;;7.60;23.10;;;;;;5036453;28;20044;-69
2022/03/02 05:44:17;;;;;;;22.13;6.22;;;7.60;24.20;;;;;;5036660;28;20033;-69
2022/03/02 05:46:43;;;;;;;21.40;6.18;;;7.60;34.10;;;;;;5037216;28;20130;-69
2022/03/02 05:49:09;;;;;;;20.60;6.10;;;7.60;33.80;;;;;;5036742;28;20110;-69
2022/03/02 05:51:36;;;;;;;16.05;6.18;;;7.50;40.40;;;;;;5036346;28;20029;-69
2022/03/02 05:54:04;;;;;;;20.77;6.28;;;7.50;43.10;;;;;;5036675;28;20033;-69
2022/03/02 05:56:33;;;;;;;16.45;6.25;;;7.50;39.40;;;;;;5036547;28;20033;-69
2022/03/02 05:58:59;;;;;;;14.35;5.30;;;6.90;30.30;;;;;;5036358;28;20041;-69
2022/03/02 06:01:25;;;;;;;18.30;5.53;;;7.50;34.60;;;;;;5036607;28;20139;-69
2022/03/02 06:03:51;;;;;;;16.30;5.82;;;7.60;39.00;;;;;;5036752;28;20079;-69
2022/03/02 06:06:17;;;;;;;18.50;5.85;;;7.50;46.40;;;;;;5036151;28;20033;-69
2022/03/02 06:08:45;;;;;;;19.77;6.03;;;7.50;56.50;;;;;;5036438;28;20393;-69
2022/03/02 06:11:11;;;;;;;19.33;6.15;;;7.50;65.80;;;;;;5036040;28;20514;-69
2022/03/02 06:13:37;;;;;;;20.42;6.93;;;7.50;82.80;;;;;;5036277;28;20500;-69
2022/03/02 06:16:03;;;;;;;21.88;6.43;;;7.40;94.70;;;;;;5036118;28;20072;-69
2022/03/02 06:18:30;;;;;;;20.38;7.15;;;7.40;99.90;;;;;;5036440;28;20123;-69
2022/03/02 06:21:05;;;;;;;19.75;6.78;;;7.30;99.90;;;;;;5036008;28;20134;-69
2022/03/02 06:23:32;;;;;;;21.98;6.60;;;7.30;99.90;;;;;;5036142;28;20053;-69
2022/03/02 06:25:58;;;;;;;18.75;6.07;;;7.30;99.90;;;;;;5035940;28;20095;-69
2022/03/02 06:28:26;;;;;;;17.50;7.32;;;7.30;99.90;;;;;;5035988;28;20040;-69
2022/03/02 06:30:52;;;;;;;13.55;6.43;;;7.40;99.90;;;;;;5036191;28;20052;-69
2022/03/02 06:33:20;;;;;;;16.85;6.47;;;7.40;99.90;;;;;;5035970;28;20094;-69
2022/03/02 06:35:47;;;;;;;19.67;7.00;;;7.30;99.90;;;;;;5036060;28;20468;-69
2022/03/02 06:38:13;;;;;;;16.98;6.55;;;7.30;99.90;;;;;;5036125;28;20110;-69
2022/03/02 06:40:41;;;;;;;14.95;6.63;;;7.40;99.90;;;;;;5036602;28;20053;-69
2022/03/02 06:43:12;;;;;;;19.90;7.35;;;7.40;99.90;;;;;;5036066;28;20488;-69
2022/03/02 06:45:44;;;;;;;;;;;7.50;99.90;;;;;;5036405;28;20041;-69
2022/03/02 06:48:16;;;;;;;10.63;6.40;;;7.50;99.90;;;;;;5036066;28;19963;-69
2022/03/02 06:50:45;;;;;;;14.73;6.63;;;7.50;99.90;;;;;;5036267;28;20048;-68
2022/03/02 06:53:13;;;;;;;16.08;6.80;;;7.40;99.90;;;;;;5035730;28;20064;-69
2022/03/02 06:55:41;;;;;;;16.85;6.88;;;7.40;99.90;;;;;;5035797;28;20044;-69
2022/03/02 06:58:10;;;;;;;17.23;6.35;;;7.50;99.90;;;;;;5035621;28;20029;-69
2022/03/02 07:00:37;;;;;;;15.55;6.75;;;7.50;99.90;;;;;;5035224;28;20061;-69
2022/03/02 07:03:14;;;;;;;20.90;7.43;;;7.50;99.90;;;;;;5035509;28;20064;-69
2022/03/02 07:05:40;;;;;;;19.48;7.00;;;7.50;99.90;;;;;;5036023;28;20060;-70
2022/03/02 07:08:08;;;;;;;18.20;7.10;;;7.50;99.90;;;;;;5034739;28;20123;-70
2022/03/02 07:10:35;;;;;;;18.45;6.05;;;7.50;99.90;;;;;;5022155;28;20058;-70
2022/03/02 07:13:04;;;;;;;17.58;6.35;;;7.50;99.90;;;;;;5026116;28;20057;-70
2022/03/02 07:15:31;;;;;;;15.25;6.40;;;7.60;99.90;;;;;;5015229;28;20053;-70
2022/03/02 07:18:02;;;;;;;17.25;6.63;;;7.60;99.90;;;;;;5029717;28;20033;-70
2022/03/02 07:20:29;;;;;;;;;;;7.70;99.90;;;;;;5034394;28;20045;-70
2022/03/02 07:22:56;;;;;;;22.95;6.85;;;7.70;99.90;;;;;;5023441;28;19920;-70
2022/03/02 07:25:27;;;;;;;15.27;6.68;;;7.80;99.90;;;;;;5034999;28;20120;-70
2022/03/02 07:27:55;;;;;;;13.23;6.22;;;7.80;99.90;;;;;;5034920;28;20044;-70
2022/03/02 07:30:21;;;;;;;10.02;5.55;;;7.80;99.90;;;;;;5034773;28;20520;-70
2022/03/02 07:32:47;;;;;;;20.92;6.53;;;7.90;99.90;;;;;;5034545;28;20040;-70
2022/03/02 07:35:16;;;;;;;17.20;6.82;;;7.90;99.60;;;;;;5034672;28;20049;-70
2022/03/02 07:37:45;;;;;;;16.58;6.60;;;7.80;99.90;;;;;;5034839;28;20611;-70
2022/03/02 07:40:13;;;;;;;19.13;7.13;;;7.90;99.90;;;;;;5034561;28;20048;-70
2022/03/02 07:42:39;;;;;;;12.52;6.10;;;7.90;99.90;;;;;;5034657;28;20072;-70
2022/03/02 07:45:06;;;;;;;10.75;6.00;;;7.90;94.70;;;;;;5033527;28;20473;-69
2022/03/02 07:47:32;;;;;;;13.90;5.97;;;7.90;97.10;;;;;;5034600;28;20069;-69
2022/03/02 07:49:58;;;;;;;18.42;6.63;;;7.90;92.50;;;;;;5035209;28;20084;-70
2022/03/02 07:52:29;;;;;;;19.77;6.88;;;8.00;99.90;;;;;;5034434;28;20049;-70
2022/03/02 07:55:02;;;;;;;18.48;6.40;;;8.00;95.90;;;;;;5018236;28;20061;-69
2022/03/02 07:57:29;;;;;;;18.35;6.40;;;8.00;99.90;;;;;;5015101;28;20044;-69
2022/03/02 07:59:58;;;;;;;15.93;6.53;;;8.00;99.90;;;;;;5014467;28;20044;-69
2022/03/02 08:02:25;;;;;;;17.88;7.35;;;8.00;89.60;;;;;;5014998;28;20053;-69
2022/03/02 08:04:52;;;;;;;13.45;6.57;;;8.10;97.30;;;;;;5014937;28;20116;-70
2022/03/02 08:07:19;;;;;;;10.15;5.82;;;8.10;94.00;;;;;;5028529;28;20046;-70
2022/03/02 08:09:44;;;;;;;15.43;7.03;;;8.10;93.30;;;;;;5025504;28;20124;-70
2022/03/02 08:12:12;;;;;;;15.88;7.53;;;8.10;89.00;;;;;;5034283;28;20115;-70
2022/03/02 08:14:38;;;;;;;14.15;6.78;;;8.10;96.90;;;;;;5025003;28;20030;-70
2022/03/02 08:17:05;;;;;;;18.98;7.38;;;8.20;99.90;;;;;;5014536;28;20050;-70
2022/03/02 08:19:31;;;;;;;11.73;6.60;;;8.30;94.50;;;;;;5015048;28;20050;-70
2022/03/02 08:22:02;;;;;;;11.52;6.15;;;8.40;99.70;;;;;;5013643;28;20123;-70
2022/03/02 08:24:30;;;;;;;11.30;6.43;;;8.40;89.80;;;;;;5014322;28;20038;-70
2022/03/02 08:27:02;;;;;;;14.60;6.82;;;8.30;60.60;;;;;;5014518;28;20042;-70
2022/03/02 08:29:30;;;;;;;9.23;6.40;;;8.30;73.90;;;;;;5018765;28;20044;-70
2022/03/02 08:32:01;;;;;;;19.50;7.00;;;8.30;63.60;;;;;;5029713;28;20038;-70
2022/03/02 08:34:28;;;;;;;10.75;6.38;;;8.30;87.60;;;;;;5018439;28;20068;-70
2022/03/02 08:36:55;;;;;;;12.35;7.40;;;8.20;79.30;;;;;;5030217;28;20041;-69
2022/03/02 08:39:22;;;;;;;17.67;7.55;;;8.20;83.90;;;;;;5038104;28;20171;-70
2022/03/02 08:41:48;;;;;;;16.92;6.95;;;8.20;79.00;;;;;;5038238;28;20044;-69
2022/03/02 08:44:14;;;;;;;14.45;6.78;;;8.20;79.40;;;;;;5037028;28;20037;-70
2022/03/02 08:46:45;;;;;;;16.42;7.07;;;8.10;79.10;;;;;;5037809;28;20038;-70
2022/03/02 08:49:12;;;;;;;13.32;5.82;;;8.20;79.30;;;;;;5037981;28;20099;-69
2022/03/02 08:51:39;;;;;;;10.60;6.22;;;7.80;77.70;;;;;;5038004;28;20034;-69
2022/03/02 08:54:06;;;;;;;16.05;7.85;;;8.20;74.40;;;;;;5037915;28;20030;-69
2022/03/02 08:56:38;;;;;;;14.18;7.93;;;8.30;90.00;;;;;;5037881;28;20041;-69
2022/03/02 08:59:05;;;;;;;16.55;7.50;;;8.30;86.00;;;;;;5036584;28;20033;-70
2022/03/02 09:01:32;;;;;;;14.38;6.60;;;8.30;78.00;;;;;;5036892;28;20060;-68
2022/03/02 09:03:59;;;;;;;13.27;6.22;;;8.30;76.60;;;;;;5041332;28;20033;-69
2022/03/02 09:06:30;;;;;;;20.63;8.10;;;8.20;66.90;;;;;;5036135;28;20048;-71
2022/03/02 09:08:56;;;;;;;13.43;5.95;;;8.20;67.50;;;;;;5027790;28;20088;-71
2022/03/02 09:11:22;;;;;;;11.88;6.18;;;8.30;63.30;;;;;;5020078;28;20132;-70
2022/03/02 09:13:51;;;;;;;13.23;6.40;;;8.30;43.80;;;;;;5027754;28;20496;-70
2022/03/02 09:16:17;;;;;;;13.27;6.07;;;8.20;51.40;;;;;;5030838;28;20096;-71
2022/03/02 09:18:44;;;;;;;11.75;5.78;;;8.30;50.00;;;;;;5036725;28;20045;-70
2022/03/02 09:21:13;;;;;;;12.32;6.32;;;8.20;71.70;;;;;;5020063;28;20053;-70
2022/03/02 09:23:41;;;;;;;16.90;6.40;;;8.20;66.70;;;;;;5017113;28;20116;-71
2022/03/02 09:26:12;;;;;;;17.42;7.07;;;8.20;80.80;;;;;;5026274;28;20566;-71
2022/03/02 09:28:41;;;;;;;13.25;6.97;;;8.20;86.80;;;;;;5034351;28;20065;-71
2022/03/02 09:31:10;;;;;;;14.00;6.57;;;8.10;82.00;;;;;;5032005;28;20049;-71
2022/03/02 09:33:37;;;;;;;16.98;6.88;;;8.10;92.10;;;;;;5032428;28;20048;-71
2022/03/02 09:36:06;;;;;;;14.77;7.03;;;8.10;90.30;;;;;;5047658;28;20381;-71
2022/03/02 09:38:33;;;;;;;13.05;6.55;;;8.10;84.80;;;;;;5035578;28;20107;-71
2022/03/02 09:41:12;;;;;;;11.48;7.28;;;8.20;75.80;;;;;;5034008;28;20056;-71
2022/03/02 09:43:46;;;;;;;13.18;7.10;;;8.20;56.70;;;;;;5034420;28;20087;-71
2022/03/02 09:46:18;;;;;;;17.90;7.32;;;8.40;64.60;;;;;;5035186;28;20045;-71
2022/03/02 09:48:50;;;;;;;16.33;8.10;;;8.40;56.60;;;;;;5048651;28;20045;-71
2022/03/02 09:51:23;;;;;;;12.73;6.70;;;8.40;36.90;;;;;;5031404;28;20500;-70
2022/03/02 09:53:54;;;;;;;13.02;6.88;;;8.40;46.80;;;;;;5031063;28;20041;-71
2022/03/02 09:56:24;;;;;;;;;;;8.40;56.00;;;;;;5031495;28;20048;-71
2022/03/02 09:58:53;;;;;;;13.40;6.32;;;8.40;47.90;;;;;;5032203;28;19913;-70
2022/03/02 10:01:24;;;;;;;13.00;7.22;;;8.30;49.50;;;;;;5034826;28;20057;-71
2022/03/02 10:03:52;;;;;;;13.98;7.32;;;8.30;78.30;;;;;;5032941;28;20041;-70
2022/03/02 10:06:21;;;;;;;12.90;7.10;;;8.20;84.70;;;;;;5035029;28;20044;-71
2022/03/02 10:08:53;;;;;;;11.07;6.72;;;8.20;62.40;;;;;;5036046;28;20036;-70
2022/03/02 10:11:22;;;;;;;14.02;7.68;;;8.20;84.60;;;;;;5025311;28;20048;-71
2022/03/02 10:13:48;;;;;;;17.88;8.23;;;8.20;75.30;;;;;;5024113;28;20033;-71
2022/03/02 10:16:22;;;;;;;13.40;6.65;;;8.30;73.00;;;;;;5034445;28;20041;-70
2022/03/02 10:18:59;;;;;;;13.05;7.50;;;8.30;68.80;;;;;;5034875;28;20026;-70
2022/03/02 10:21:40;;;;;;;11.60;6.38;;;8.30;68.30;;;;;;5029993;28;20113;-71
2022/03/02 10:24:12;;;;;;;8.45;5.55;;;8.30;61.50;;;;;;5040112;28;20041;-70
2022/03/02 10:26:50;;;;;;;10.75;5.70;;;8.40;75.40;;;;;;5034355;28;20086;-70
2022/03/02 10:29:51;;;;;;;12.00;5.35;;;8.30;52.90;;;;;;5017524;28;20068;-70
2022/03/02 10:32:19;;;;;;;7.05;5.47;;;8.30;60.90;;;;;;5028167;28;20508;-70
2022/03/02 10:34:50;;;;;;;9.32;5.38;;;8.30;60.70;;;;;;5033113;28;20314;-70
2022/03/02 10:37:39;;;;;;;10.68;7.20;;;8.40;54.00;;;;;;5031483;28;20037;-70
2022/03/02 10:40:20;;;;;;;13.00;6.70;;;8.30;53.30;;;;;;5033951;28;20565;-71
2022/03/02 10:42:57;;;;;;;12.23;5.70;;;8.30;58.70;;;;;;5034357;28;20112;-71
2022/03/02 10:45:42;;;;;;;10.88;6.00;;;8.40;64.50;;;;;;5029467;28;20037;-70
2022/03/02 10:48:12;;;;;;;10.13;6.63;;;8.40;65.60;;;;;;5012795;28;20045;-70
2022/03/02 10:50:41;;;;;;;19.70;8.47;;;8.60;65.00;;;;;;5027727;28;20045;-70
2022/03/02 10:53:15;;;;;;;11.48;6.38;;;8.50;57.90;;;;;;5031808;28;20045;-70
2022/03/02 10:55:47;;;;;;;11.05;6.43;;;8.30;58.30;;;;;;5021542;28;20132;-71
2022/03/02 10:58:18;;;;;;;10.82;5.82;;;8.30;78.40;;;;;;5024221;28;20591;-71
2022/03/02 11:00:46;;;;;;;9.50;6.22;;;8.40;85.80;;;;;;5031374;28;20119;-72
2022/03/02 11:03:14;;;;;;;12.82;6.47;;;8.40;69.40;;;;;;5031047;28;20029;-71
2022/03/02 11:05:41;;;;;;;10.90;6.10;;;8.40;86.10;;;;;;5030203;28;20037;-71
2022/03/02 11:08:07;;;;;;;10.73;5.43;;;8.40;63.50;;;;;;5027627;28;20052;-71
2022/03/02 11:10:37;;;;;;;11.05;5.70;;;8.40;92.20;;;;;;5021140;28;20050;-71
2022/03/02 11:13:15;;;;;;;10.75;6.15;;;8.40;76.90;;;;;;5018765;28;20041;-71
2022/03/02 11:15:49;;;;;;;15.82;9.73;;;8.30;94.60;;;;;;5014121;28;20041;-71
2022/03/02 11:18:17;;;;;;;10.90;6.95;;;8.20;92.00;;;;;;5029873;28;20417;-71
2022/03/02 11:21:14;;;;;;;15.75;10.82;;;8.20;99.90;;;;;;5026664;28;20061;-70
2022/03/02 11:23:52;;;;;;;13.15;7.82;;;8.20;99.90;;;;;;5009243;28;20044;-71
2022/03/02 11:26:27;;;;;;;14.07;11.93;;;8.80;99.90;;;;;;5032536;28;20045;-72
2022/03/02 11:29:00;;;;;;;9.93;5.95;;;8.20;99.90;;;;;;5031527;28;20090;-74
2022/03/02 11:31:31;;;;;;;12.68;8.10;;;8.20;99.90;;;;;;5031363;28;20112;-72
2022/03/02 11:34:09;;;;;;;12.23;8.07;;;8.20;99.90;;;;;;5031090;28;20041;-73
2022/03/02 11:36:37;;;;;;;9.85;6.70;;;8.20;99.90;;;;;;5017872;28;20037;-71
2022/03/02 11:39:05;;;;;;;13.73;7.97;;;8.20;99.90;;;;;;4999099;28;20252;-71
2022/03/02 11:41:38;;;;;;;8.73;5.93;;;8.10;99.90;;;;;;5020659;28;20056;-72
2022/03/02 11:44:23;;;;;;;7.65;5.20;;;8.10;99.90;;;;;;5015730;28;20157;-71
2022/03/02 11:46:49;;;;;;;8.63;7.25;;;8.20;99.90;;;;;;5020055;28;20046;-71
2022/03/02 11:49:16;;;;;;;8.15;5.90;;;8.20;99.90;;;;;;5015920;28;20088;-71
2022/03/02 11:51:42;;;;;;;11.68;5.43;;;8.30;92.60;;;;;;5026174;28;20033;-71
2022/03/02 11:54:10;;;;;;;7.47;5.43;;;8.30;97.20;;;;;;5034441;28;20110;-71
2022/03/02 11:56:36;;;;;;;7.93;5.68;;;8.20;97.20;;;;;;5017894;28;20096;-71
2022/03/02 11:59:05;;;;;;;7.20;4.68;;;8.20;99.90;;;;;;5018079;28;20033;-71
2022/03/02 12:01:50;;;;;;;5.93;4.32;;;8.20;99.90;;;;;;5015353;28;20049;-71
2022/03/02 12:04:17;;;;;;;8.98;7.05;;;8.20;93.10;;;;;;5033476;28;20132;-71
2022/03/02 12:06:50;;;;;;;9.38;5.70;;;8.30;99.90;;;;;;5017223;28;20044;-72
2022/03/02 12:09:43;;;;;;;10.73;5.30;;;8.30;99.90;;;;;;5023096;28;20092;-72
2022/03/02 12:12:22;;;;;;;7.57;4.80;;;8.10;93.80;;;;;;5026848;28;20084;-73
2022/03/02 12:14:54;;;;;;;10.95;8.00;;;8.10;92.40;;;;;;5032290;28;20637;-72
2022/03/02 12:17:24;;;;;;;8.18;5.45;;;8.20;99.90;;;;;;5031671;28;20041;-72
2022/03/02 12:19:56;;;;;;;6.45;4.88;;;8.10;91.10;;;;;;5031975;28;20046;-72
2022/03/02 12:22:28;;;;;;;8.88;5.13;;;8.10;98.50;;;;;;5015082;28;20033;-72
2022/03/02 12:24:54;;;;;;;6.10;4.45;;;8.10;99.90;;;;;;5032290;28;20068;-72
2022/03/02 12:27:22;;;;;;;6.82;5.78;;;8.10;99.90;;;;;;5033330;28;20133;-72
2022/03/02 12:29:57;;;;;;;6.55;5.30;;;8.20;99.90;;;;;;5036229;28;20038;-72
2022/03/02 12:32:28;;;;;;;6.95;5.82;;;8.00;92.10;;;;;;5033159;28;20566;-72
2022/03/02 12:34:55;;;;;;;7.57;5.18;;;8.10;99.90;;;;;;5032265;28;20036;-72
2022/03/02 12:37:22;;;;;;;9.48;5.50;;;8.10;98.80;;;;;;5031700;28;20079;-72
2022/03/02 12:39:48;;;;;;;7.90;5.22;;;8.20;99.90;;;;;;5032478;28;20128;-72
2022/03/02 12:42:16;;;;;;;7.10;6.00;;;8.30;77.50;;;;;;5032299;28;20045;-71
2022/03/02 12:44:47;;;;;;;11.48;6.50;;;8.30;60.80;;;;;;5032144;28;20037;-71
2022/03/02 12:47:14;;;;;;;;;;;8.50;77.20;;;;;;5014257;28;20038;-71
2022/03/02 12:49:43;;;;;;;9.45;5.10;;;8.50;57.60;;;;;;5013482;28;19996;-71
2022/03/02 12:52:10;;;;;;;9.27;5.13;;;8.60;59.70;;;;;;5013289;28;20041;-71
2022/03/02 12:54:38;;;;;;;14.25;11.95;;;8.60;59.10;;;;;;5012756;28;20045;-71
2022/03/02 12:57:08;;;;;;;7.70;5.68;;;8.60;55.30;;;;;;4995909;28;20124;-71